Time;durP1;ratioP1;P1;durP2;ratioP2;P2;SDS_P1;SDS_P2;PMS_P1;PMS_P2;Temp;Humidity;BMP_temperature;BMP_pressure;BME280_temperature;BME280_humidity;BME280_pressure;Samples;Min_cycle;Max_cycle;Signal;HPM_P1;HPM_P2
2021/12/21 00:00:12;;;;;;;3.70;2.15;;;;;;;22.62;36.87;94997.94;5046817;28;20045;-54
2021/12/21 00:02:38;;;;;;;68.15;38.42;;;;;;;22.58;36.77;94989.28;5047126;28;20068;-52
2021/12/21 00:05:04;;;;;;;5.97;2.25;;;;;;;22.57;36.80;94990.50;5046940;28;20107;-54
2021/12/21 00:07:29;;;;;;;20.10;11.55;;;;;;;22.54;36.78;94997.72;5046814;28;20040;-53
2021/12/21 00:09:55;;;;;;;11.85;6.30;;;;;;;22.51;37.18;94997.97;5036007;28;20034;-52
2021/12/21 00:12:24;;;;;;;6.15;3.28;;;;;;;22.50;37.01;95001.97;5040941;28;20234;-52
2021/12/21 00:15:03;;;;;;;3.63;2.20;;;;;;;22.46;37.15;95001.47;5046778;28;20033;-53
2021/12/21 00:20:23;;;;;;;111.72;74.28;;;;;;;22.41;37.20;95013.13;5038594;28;20525;-52
2021/12/21 00:25:21;;;;;;;3.50;1.88;;;;;;;22.36;37.22;95016.63;5046514;28;20021;-53
2021/12/21 00:27:48;;;;;;;4.05;2.03;;;;;;;22.34;37.12;95016.38;5046453;28;20095;-52
2021/12/21 00:30:14;;;;;;;3.75;1.88;;;;;;;22.33;37.20;95019.59;5046074;28;20537;-53
2021/12/21 00:32:39;;;;;;;3.70;2.28;;;;;;;22.29;37.18;95017.16;5046427;28;20064;-53
2021/12/21 00:35:05;;;;;;;2.85;1.65;;;;;;;22.27;37.17;95022.34;5046614;28;20040;-53
2021/12/21 00:37:31;;;;;;;27.77;24.50;;;;;;;22.26;37.23;95020.88;5046126;28;20033;-56
2021/12/21 00:39:56;;;;;;;41.17;26.52;;;;;;;22.24;37.25;95028.81;5046258;28;20438;-53
2021/12/21 00:42:21;;;;;;;4.70;2.60;;;;;;;22.20;37.49;95027.56;5046429;28;20025;-59
2021/12/21 00:44:47;;;;;;;18.77;16.20;;;;;;;22.15;37.36;95020.91;5046145;28;20052;-55
2021/12/21 00:47:15;;;;;;;147.02;93.20;;;;;;;22.18;37.22;95030.78;5046665;28;20491;-52
2021/12/21 00:49:45;;;;;;;14.98;11.63;;;;;;;22.16;37.34;95038.69;5036823;28;20192;-59
2021/12/21 00:52:10;;;;;;;331.02;199.70;;;;;;;22.13;37.41;95034.25;5038748;28;20479;-56
2021/12/21 00:54:36;;;;;;;3.22;1.80;;;;;;;22.12;37.36;95038.22;5046211;28;20411;-57
2021/12/21 00:57:04;;;;;;;4.03;2.17;;;;;;;22.06;37.35;95029.34;5042364;28;20103;-55
2021/12/21 00:59:30;;;;;;;3.90;1.88;;;;;;;22.08;37.37;95040.44;5032191;28;20040;-58
2021/12/21 01:01:55;;;;;;;3.33;1.90;;;;;;;22.03;37.38;95024.91;5045064;28;20068;-54
2021/12/21 01:04:25;;;;;;;145.25;102.70;;;;;;;22.05;37.46;95027.84;5045126;28;20479;-54
2021/12/21 01:07:02;;;;;;;4.20;2.10;;;;;;;22.02;37.42;95034.28;5045708;28;20395;-58
2021/12/21 01:12:16;;;;;;;3.45;2.03;;;;;;;22.01;37.53;95037.50;5045697;28;20419;-60
2021/12/21 01:17:32;;;;;;;4.05;1.98;;;;;;;21.96;37.63;95036.28;5045698;28;20044;-57
2021/12/21 01:20:08;;;;;;;2.70;1.58;;;;;;;21.94;37.58;95033.34;5046000;28;20064;-56
2021/12/21 01:30:36;;;;;;;157.35;124.30;;;;;;;21.90;37.60;95031.34;5032092;28;20068;-58
2021/12/21 01:33:26;;;;;;;2.08;1.40;;;;;;;21.87;37.55;95043.22;5044980;28;20063;-58
2021/12/21 01:35:54;;;;;;;4.70;2.08;;;;;;;21.86;37.58;95036.31;5045639;28;20047;-56
2021/12/21 01:38:30;;;;;;;8.48;6.82;;;;;;;21.84;37.63;95050.41;5032003;28;20392;-59
2021/12/21 01:43:32;;;;;;;34.63;31.73;;;;;;;21.83;37.54;95048.19;5045346;28;20047;-52
2021/12/21 01:51:46;;;;;;;30.42;27.88;;;;;;;21.78;37.71;95062.50;5003273;28;20112;-53
2021/12/21 01:54:11;;;;;;;3.58;1.77;;;;;;;21.72;37.62;95053.63;5027739;28;20499;-54
2021/12/21 01:56:36;;;;;;;423.85;268.55;;;;;;;21.75;37.79;95061.53;5045656;28;20034;-53
2021/12/21 01:59:02;;;;;;;2.85;1.60;;;;;;;21.73;37.58;95049.69;5043803;28;20036;-53
2021/12/21 02:01:27;;;;;;;3.70;1.60;;;;;;;21.66;37.46;95039.34;5045126;28;20020;-54
2021/12/21 02:03:53;;;;;;;2.60;1.40;;;;;;;21.70;37.75;95042.53;5045111;28;20068;-55
2021/12/21 02:06:24;;;;;;;3.15;1.60;;;;;;;21.68;37.76;95050.44;5044794;28;20128;-51
2021/12/21 02:08:49;;;;;;;2.53;1.60;;;;;;;21.66;37.72;95050.94;5043594;28;20036;-53
2021/12/21 02:11:15;;;;;;;2.78;1.60;;;;;;;21.67;37.70;95057.09;5029520;28;20009;-53
2021/12/21 02:13:45;;;;;;;2.97;1.58;;;;;;;21.65;37.78;95051.44;5044953;28;20104;-52
2021/12/21 02:16:10;;;;;;;176.13;106.15;;;;;;;21.67;37.69;95051.66;5045140;28;20021;-53
2021/12/21 02:21:21;;;;;;;2.55;1.33;;;;;;;21.62;37.96;95044.28;5044108;28;20123;-52
2021/12/21 02:23:48;;;;;;;2.20;1.50;;;;;;;21.61;37.72;95043.53;5044612;28;20143;-52
2021/12/21 02:31:07;;;;;;;26.42;18.42;;;;;;;21.57;37.49;95064.06;5044317;28;20037;-55
2021/12/21 02:33:34;;;;;;;16.15;10.65;;;;;;;21.57;37.75;95053.19;5043136;28;20024;-54
2021/12/21 02:35:59;;;;;;;2.58;1.50;;;;;;;21.57;37.85;95053.91;5043074;28;20449;-57
2021/12/21 02:38:28;;;;;;;2.33;1.40;;;;;;;21.57;37.82;95053.19;5030216;28;20038;-56
2021/12/21 02:40:53;;;;;;;3.00;1.55;;;;;;;21.52;37.85;95051.19;5042493;28;20072;-57
2021/12/21 02:43:19;;;;;;;2.58;1.30;;;;;;;21.55;37.69;95050.19;5044525;28;20033;-56
2021/12/21 02:45:44;;;;;;;2.03;1.38;;;;;;;21.51;37.77;95055.16;5044729;28;20049;-55
2021/12/21 02:48:10;;;;;;;2.13;1.30;;;;;;;21.50;37.86;95053.69;5044347;28;20033;-56
2021/12/21 02:50:38;;;;;;;2.03;1.20;;;;;;;21.49;37.74;95061.09;5044299;28;20400;-52
2021/12/21 02:53:04;;;;;;;2.58;1.55;;;;;;;21.49;37.64;95063.06;5044130;28;20037;-55
2021/12/21 02:55:30;;;;;;;3.25;1.60;;;;;;;21.46;37.78;95047.75;5044786;28;20033;-54
2021/12/21 02:57:57;;;;;;;2.83;1.50;;;;;;;21.47;37.90;95065.53;5043228;28;20062;-57
2021/12/21 03:00:23;;;;;;;2.95;1.50;;;;;;;21.46;37.90;95064.81;5058454;28;20045;-57
2021/12/21 03:02:49;;;;;;;2.28;1.40;;;;;;;21.47;37.78;95065.53;5042676;28;20025;-55
2021/12/21 03:05:14;;;;;;;2.40;1.23;;;;;;;21.46;37.78;95069.47;5042346;28;20079;-55
2021/12/21 03:08:25;;;;;;;2.05;1.23;;;;;;;21.46;37.71;95064.03;5044438;28;20021;-54
2021/12/21 03:10:28;;;;;;;2.60;1.58;;;;;;;21.44;37.87;95066.50;5036965;28;20423;-55
2021/12/21 03:13:54;;;;;;;2.15;1.35;;;;;;;21.44;37.90;95069.94;5044427;28;20514;-53
2021/12/21 03:15:39;;;;;;;2.42;1.15;;;;;;;21.43;37.89;95070.44;5046970;28;20045;-52
2021/12/21 03:18:05;;;;;;;2.45;1.42;;;;;;;21.44;37.82;95072.66;5036425;28;20064;-53
2021/12/21 03:20:30;;;;;;;2.05;1.13;;;;;;;21.43;37.91;95070.44;5042706;28;20457;-52
2021/12/21 03:22:55;;;;;;;2.42;1.33;;;;;;;21.40;37.86;95066.00;5048086;28;20542;-53
2021/12/21 03:25:21;;;;;;;2.13;1.15;;;;;;;21.40;37.84;95070.69;5048424;28;20518;-54
2021/12/21 03:27:46;;;;;;;2.85;1.25;;;;;;;21.40;37.98;95066.00;5048142;28;20018;-53
2021/12/21 03:30:13;;;;;;;2.13;1.20;;;;;;;21.38;37.81;95073.16;5047668;28;20068;-52
2021/12/21 03:32:38;;;;;;;2.45;1.20;;;;;;;21.38;37.85;95065.75;5047699;28;20525;-53
2021/12/21 03:35:04;;;;;;;2.20;1.25;;;;;;;21.36;37.93;95064.75;5047763;28;20017;-54
2021/12/21 03:37:29;;;;;;;1.80;1.08;;;;;;;21.34;37.95;95059.81;5047631;28;20123;-53
2021/12/21 03:39:55;;;;;;;2.42;1.23;;;;;;;21.37;38.07;95071.69;5048165;28;20458;-52
2021/12/21 03:42:22;;;;;;;1.80;1.20;;;;;;;21.36;37.80;95076.38;5047547;28;20056;-53
2021/12/21 03:44:48;;;;;;;2.67;1.40;;;;;;;21.36;37.98;95075.63;5047185;28;20044;-54
2021/12/21 03:47:15;;;;;;;2.20;1.27;;;;;;;21.35;37.92;95069.47;5047839;28;20454;-54
2021/12/21 03:52:14;;;;;;;1.80;1.02;;;;;;;21.35;38.03;95083.03;5039214;28;20592;-54
2021/12/21 03:54:40;;;;;;;;;;;;;;;21.35;37.87;95079.59;5047861;28;20040;-53
2021/12/21 03:57:06;;;;;;;2.08;1.10;;;;;;;21.32;38.00;95078.59;5044597;28;19964;-53
2021/12/21 03:59:31;;;;;;;1.85;1.10;;;;;;;21.32;37.94;95084.03;5033646;28;20530;-53
2021/12/21 04:01:57;;;;;;;2.30;1.20;;;;;;;21.31;37.83;95096.13;5062905;28;20017;-53
2021/12/21 04:04:23;;;;;;;2.25;1.20;;;;;;;21.31;37.90;95096.13;5047355;28;20040;-55
2021/12/21 04:06:49;;;;;;;2.70;1.60;;;;;;;21.24;37.79;95091.19;5047402;28;20148;-53
2021/12/21 04:09:14;;;;;;;2.10;1.20;;;;;;;21.28;37.94;95086.22;5046869;28;20127;-56
2021/12/21 04:11:40;;;;;;;2.97;1.50;;;;;;;21.25;37.81;95098.09;5047342;28;20033;-52
2021/12/21 04:14:05;;;;;;;2.20;1.17;;;;;;;21.29;38.01;95095.16;5047036;28;20040;-53
2021/12/21 04:16:31;;;;;;;1.98;1.13;;;;;;;21.27;37.91;95103.03;5047413;28;20496;-52
2021/12/21 04:18:56;;;;;;;1.98;1.17;;;;;;;21.24;37.89;95107.47;5028732;28;20045;-52
2021/12/21 04:21:22;;;;;;;2.50;1.40;;;;;;;21.26;37.91;95105.00;5047259;28;20033;-54
2021/12/21 04:23:47;;;;;;;1.80;1.02;;;;;;;21.25;38.02;95108.94;5046751;28;20564;-52
2021/12/21 04:26:14;;;;;;;5.55;2.22;;;;;;;21.25;37.95;95103.53;5046727;28;20095;-52
2021/12/21 04:28:39;;;;;;;2.15;1.02;;;;;;;21.25;38.12;95108.94;5046623;28;20162;-53
2021/12/21 04:31:05;;;;;;;2.17;1.25;;;;;;;21.23;38.01;95100.56;5030180;28;20048;-52
2021/12/21 04:33:31;;;;;;;2.10;1.10;;;;;;;21.22;37.89;95099.06;5046899;28;20517;-53
2021/12/21 04:35:56;;;;;;;1.55;0.85;;;;;;;21.23;37.81;95106.00;5046708;28;20090;-53
2021/12/21 04:38:23;;;;;;;1.70;1.00;;;;;;;;;;5046376;28;20070;-52
2021/12/21 04:40:55;;;;;;;2.33;1.23;;;;;;;21.20;37.96;95106.97;5046942;28;20040;-52
2021/12/21 04:43:21;;;;;;;1.63;0.85;;;;;;;21.20;37.95;95111.69;5046615;28;20021;-55
2021/12/21 04:45:46;;;;;;;1.77;1.00;;;;;;;21.10;38.09;95103.00;5046572;28;20029;-55
2021/12/21 04:48:12;;;;;;;3.00;1.30;;;;;;;21.18;37.77;95103.25;5046789;28;20025;-52
2021/12/21 04:50:37;;;;;;;1.60;0.90;;;;;;;21.19;37.90;95110.19;5031598;28;20026;-52
2021/12/21 04:53:03;;;;;;;1.70;1.00;;;;;;;21.18;38.02;95108.69;5044751;28;20032;-52
2021/12/21 04:55:28;;;;;;;1.95;1.05;;;;;;;21.18;37.77;95114.13;5046458;28;20498;-52
2021/12/21 04:57:53;;;;;;;1.88;1.20;;;;;;;21.17;38.00;95118.09;5044721;28;20040;-52
2021/12/21 05:00:19;;;;;;;1.70;0.80;;;;;;;21.16;37.84;95127.47;5045425;28;20029;-54
2021/12/21 05:02:44;;;;;;;3.03;1.13;;;;;;;21.15;37.97;95121.28;5046361;28;20044;-56
2021/12/21 05:05:10;;;;;;;2.00;1.00;;;;;;;21.13;37.87;95123.75;5047342;28;20028;-52
2021/12/21 05:07:37;;;;;;;2.17;1.02;;;;;;;21.14;38.05;95136.09;5049695;28;20032;-56
2021/12/21 05:10:04;;;;;;;2.50;1.33;;;;;;;21.13;37.88;95123.00;5050050;28;20582;-52
2021/12/21 05:12:29;;;;;;;1.90;1.23;;;;;;;21.13;38.12;95134.59;5047295;28;20182;-52
2021/12/21 05:14:55;;;;;;;1.50;0.95;;;;;;;21.13;38.10;95131.88;5046250;28;20214;-52
2021/12/21 05:17:21;;;;;;;1.95;1.15;;;;;;;21.12;38.01;95138.56;5041432;28;20033;-55
2021/12/21 05:19:46;;;;;;;2.13;1.00;;;;;;;21.11;37.95;95128.19;5033996;28;20124;-55
2021/12/21 05:22:12;;;;;;;2.08;1.02;;;;;;;21.10;38.07;95130.16;5045787;28;20502;-53
2021/12/21 05:24:38;;;;;;;1.75;1.02;;;;;;;21.10;38.07;95130.16;5045935;28;20041;-52
2021/12/21 05:27:04;;;;;;;1.70;0.88;;;;;;;21.08;37.93;95132.63;5046059;28;20035;-53
2021/12/21 05:29:31;;;;;;;1.52;0.88;;;;;;;21.09;38.09;95128.69;5046065;28;20039;-52
2021/12/21 05:31:58;;;;;;;2.15;1.20;;;;;;;21.09;37.91;95123.25;5046431;28;20025;-52
2021/12/21 05:34:24;;;;;;;2.05;0.90;;;;;;;21.06;38.21;95129.69;5045627;28;20078;-55
2021/12/21 05:36:50;;;;;;;1.52;0.80;;;;;;;21.06;37.93;95129.69;5045996;28;20063;-53
2021/12/21 05:39:19;;;;;;;1.85;0.90;;;;;;;21.05;38.09;95139.03;5045996;28;20016;-53
2021/12/21 05:41:53;;;;;;;1.67;0.93;;;;;;;21.04;38.00;95142.97;5045451;28;20013;-53
2021/12/21 05:44:20;;;;;;;1.92;0.95;;;;;;;21.05;38.15;95154.59;5045966;28;20037;-54
2021/12/21 05:46:45;;;;;;;1.70;1.00;;;;;;;21.04;37.89;95156.56;5044949;28;20504;-53
2021/12/21 05:49:11;;;;;;;1.63;0.85;;;;;;;21.05;37.92;95152.63;5042235;28;20029;-54
2021/12/21 05:51:36;;;;;;;1.83;1.00;;;;;;;21.12;37.95;95164.97;5031841;28;20020;-53
2021/12/21 05:54:02;;;;;;;2.75;1.20;;;;;;;21.18;37.96;95166.47;5045055;28;20025;-53
2021/12/21 05:56:27;;;;;;;1.30;0.90;;;;;;;21.27;37.69;95177.13;5045101;28;20021;-55
2021/12/21 05:58:53;;;;;;;1.92;0.80;;;;;;;21.32;37.67;95184.53;5028347;28;20073;-51
2021/12/21 06:01:18;;;;;;;2.97;1.00;;;;;;;21.36;37.57;95182.31;5045434;28;20090;-56
2021/12/21 06:03:44;;;;;;;5.80;0.90;;;;;;;21.40;37.74;95188.22;5045155;28;20032;-53
2021/12/21 06:06:13;;;;;;;1.33;0.93;;;;;;;21.42;37.87;95189.22;5051189;28;20029;-53
2021/12/21 06:08:39;;;;;;;3.92;0.73;;;;;;;21.46;37.85;95186.28;5062355;28;20032;-52
2021/12/21 06:11:06;;;;;;;1.27;0.60;;;;;;;21.49;37.85;95194.22;5060264;28;20204;-52
2021/12/21 06:27:06;;;;;;;2.58;1.10;;;;;;;21.88;37.76;95219.44;5044716;28;20066;-54
2021/12/21 06:29:31;;;;;;;1.55;0.85;;;;;;;21.97;37.50;95222.66;5039221;28;20029;-52
2021/12/21 06:31:57;;;;;;;1.90;0.70;;;;;;;22.07;37.44;95232.03;5033920;28;20029;-51
2021/12/21 06:34:23;;;;;;;1.88;0.80;;;;;;;21.97;37.53;95203.63;5044757;28;20032;-52
2021/12/21 06:36:49;;;;;;;1.30;0.75;;;;;;;22.24;37.24;95230.09;5059723;28;20131;-53
2021/12/21 06:39:14;;;;;;;2.20;1.00;;;;;;;22.30;37.15;95228.13;5059456;28;20029;-52
2021/12/21 06:41:40;;;;;;;2.20;0.68;;;;;;;22.41;37.07;95222.66;5061829;28;20051;-53
2021/12/21 06:44:08;;;;;;;1.13;0.60;;;;;;;22.50;36.95;95231.28;5058865;28;20037;-53
2021/12/21 06:51:57;;;;;;;1.25;0.60;;;;;;;22.74;36.42;95238.91;5066285;28;20089;-53
2021/12/21 06:54:23;;;;;;;1.50;0.85;;;;;;;22.79;36.26;95246.31;5065401;28;20025;-53
2021/12/21 06:56:48;;;;;;;1.30;0.60;;;;;;;22.89;36.05;95245.53;5066047;28;20029;-53
2021/12/21 06:59:14;;;;;;;2.03;0.77;;;;;;;22.99;36.17;95244.78;5046676;28;20033;-51
2021/12/21 07:01:39;;;;;;;1.30;0.82;;;;;;;23.02;36.27;95243.06;5047804;28;20029;-52
2021/12/21 07:04:06;;;;;;;1.33;0.70;;;;;;;23.12;36.18;95247.72;5055385;28;20084;-53
2021/12/21 07:06:35;;;;;;;1.55;0.80;;;;;;;23.15;36.00;95244.00;5066059;28;20060;-52
2021/12/21 07:09:17;;;;;;;0.77;0.60;;;;;;;23.26;35.66;95257.56;5063950;28;20498;-54
2021/12/21 07:11:51;;;;;;;1.92;0.85;;;;;;;23.35;35.99;95260.00;5061783;28;20032;-51
2021/12/21 07:20:02;;;;;;;1.90;0.80;;;;;;;23.68;35.01;95265.31;5058403;28;20044;-53
2021/12/21 07:22:27;;;;;;;1.35;0.70;;;;;;;23.78;35.06;95269.19;5055627;28;20029;-52
2021/12/21 07:24:52;;;;;;;1.27;0.80;;;;;;;23.88;34.59;95263.69;5048423;28;20314;-55
2021/12/21 07:27:18;;;;;;;1.20;0.60;;;;;;;24.00;34.37;95261.59;5048388;28;20414;-54
2021/12/21 07:29:43;;;;;;;2.10;0.60;;;;;;;24.11;34.40;95265.00;5047615;28;20029;-52
2021/12/21 07:32:09;;;;;;;1.17;0.70;;;;;;;24.21;34.43;95277.06;5047053;28;20044;-51
2021/12/21 07:34:34;;;;;;;1.05;0.57;;;;;;;24.34;33.84;95282.69;5051157;28;20047;-51
2021/12/21 07:36:59;;;;;;;1.70;0.80;;;;;;;24.39;34.26;95279.94;5048187;28;20041;-53
2021/12/21 07:39:25;;;;;;;1.70;0.77;;;;;;;24.50;33.99;95290.00;5047731;28;20039;-53
2021/12/21 07:41:50;;;;;;;1.23;0.75;;;;;;;24.58;33.76;95285.47;5048261;28;20033;-51
2021/12/21 07:44:16;;;;;;;1.38;0.77;;;;;;;24.66;33.33;95283.66;5058385;28;20032;-56
2021/12/21 07:46:42;;;;;;;1.00;0.68;;;;;;;24.74;33.62;95282.56;5078102;28;20048;-56
2021/12/21 07:49:07;;;;;;;1.40;0.77;;;;;;;24.78;33.24;95279.56;5071294;28;20020;-51
2021/12/21 07:51:33;;;;;;;1.23;0.70;;;;;;;24.82;33.19;95271.81;5072869;28;20074;-57
2021/12/21 07:53:58;;;;;;;1.40;0.70;;;;;;;24.85;33.11;95283.19;5071215;28;20039;-54
2021/12/21 07:56:24;;;;;;;1.90;0.80;;;;;;;24.91;33.14;95274.94;5057422;28;20028;-54
2021/12/21 07:58:49;;;;;;;1.50;0.80;;;;;;;24.90;33.17;95285.16;5061857;28;20036;-53
2021/12/21 08:01:15;;;;;;;1.10;0.65;;;;;;;24.94;33.33;95296.50;5066206;28;20025;-59
2021/12/21 08:03:40;;;;;;;1.27;0.77;;;;;;;24.98;33.03;95296.25;5064585;28;20025;-56
2021/12/21 08:06:07;;;;;;;1.63;0.90;;;;;;;25.00;32.79;95293.75;5066323;28;20066;-58
2021/12/21 08:08:35;;;;;;;1.90;0.70;;;;;;;24.99;33.09;95298.50;5065491;28;20093;-56
2021/12/21 08:11:28;;;;;;;1.45;0.68;;;;;;;25.01;33.35;95304.19;5060812;28;20025;-57
2021/12/21 08:13:53;;;;;;;1.27;0.80;;;;;;;25.06;32.77;95300.63;5063395;28;20058;-55
2021/12/21 08:16:19;;;;;;;1.25;0.70;;;;;;;25.11;33.21;95316.25;5065719;28;20028;-57
2021/12/21 08:18:44;;;;;;;1.55;0.80;;;;;;;25.09;33.18;95313.28;5062043;28;20051;-52
2021/12/21 08:21:12;;;;;;;1.25;0.73;;;;;;;25.17;32.85;95313.44;5063004;28;20033;-52
2021/12/21 08:23:37;;;;;;;1.98;0.82;;;;;;;25.26;32.81;95333.00;5065458;28;20020;-52
2021/12/21 08:26:04;;;;;;;1.67;0.82;;;;;;;25.23;32.66;95336.75;5065527;28;20503;-51
2021/12/21 08:28:29;;;;;;;1.02;0.70;;;;;;;25.27;32.46;95334.44;5064129;28;20525;-51
2021/12/21 08:30:55;;;;;;;1.33;0.60;;;;;;;25.31;32.70;95334.91;5064961;28;20032;-53
2021/12/21 08:33:20;;;;;;;1.00;0.55;;;;;;;25.27;32.44;95320.06;5059189;28;20063;-51
2021/12/21 08:35:46;;;;;;;1.35;0.73;;;;;;;25.31;32.53;95329.44;5055839;28;20469;-54
2021/12/21 08:38:14;;;;;;;1.40;0.70;;;;;;;25.32;32.29;95331.66;5045531;28;20037;-53
2021/12/21 08:40:41;;;;;;;1.27;0.70;;;;;;;25.35;32.44;95329.88;5053536;28;20547;-53
2021/12/21 08:43:11;;;;;;;1.73;0.90;;;;;;;25.39;32.13;95328.34;5050390;28;20033;-52
2021/12/21 08:45:37;;;;;;;1.02;0.75;;;;;;;25.41;31.93;95336.03;5046216;28;20025;-52
2021/12/21 08:48:05;;;;;;;1.13;0.80;;;;;;;25.45;32.30;95333.75;5049129;28;20462;-53
2021/12/21 08:50:30;;;;;;;3.85;0.90;;;;;;;25.44;32.40;95321.31;5034234;28;20590;-53
2021/12/21 08:52:56;;;;;;;1.50;0.80;;;;;;;25.50;32.20;95346.59;5043054;28;20107;-52
2021/12/21 08:55:21;;;;;;;2.45;0.80;;;;;;;25.50;32.38;95346.59;5046847;28;20142;-54
2021/12/21 08:57:46;;;;;;;2.20;0.63;;;;;;;25.55;32.50;95345.81;5038709;28;20033;-53
2021/12/21 09:00:12;;;;;;;1.35;0.60;;;;;;;25.56;32.22;95339.06;5034950;28;20024;-52
2021/12/21 09:02:38;;;;;;;1.77;0.60;;;;;;;25.60;31.95;95343.00;5045153;28;20370;-53
2021/12/21 09:05:09;;;;;;;1.85;0.70;;;;;;;25.68;32.05;95352.16;5044557;28;20044;-53
2021/12/21 09:07:35;;;;;;;2.70;0.80;;;;;;;25.78;31.77;95347.78;5046226;28;20029;-52
2021/12/21 09:10:00;;;;;;;1.50;0.82;;;;;;;25.79;31.62;95352.72;5045173;28;20494;-51
2021/12/21 09:12:26;;;;;;;2.83;1.40;;;;;;;25.96;31.37;95338.84;5057457;28;20079;-52
2021/12/21 09:14:51;;;;;;;3.70;1.83;;;;;;;26.11;31.60;95337.13;5052068;28;20033;-53
2021/12/21 09:17:17;;;;;;;4.13;2.00;;;;;;;26.17;31.29;95348.72;5041210;28;20036;-53
2021/12/21 09:19:42;;;;;;;4.88;1.83;;;;;;;26.21;31.53;95343.69;5030442;28;20056;-54
2021/12/21 09:22:07;;;;;;;4.80;1.60;;;;;;;26.26;31.70;95340.13;5044074;28;20493;-53
2021/12/21 09:24:33;;;;;;;4.07;2.13;;;;;;;26.27;32.17;95352.56;5046154;28;20029;-52
2021/12/21 09:26:58;;;;;;;4.90;1.85;;;;;;;26.22;32.14;95345.19;5045600;28;20039;-54
2021/12/21 09:29:24;;;;;;;4.70;1.40;;;;;;;26.14;34.03;95344.28;5045479;28;20112;-51
2021/12/21 09:31:49;;;;;;;4.47;1.70;;;;;;;25.99;33.21;95324.13;5045806;28;20029;-52
2021/12/21 09:34:14;;;;;;;3.92;1.60;;;;;;;26.06;32.81;95354.38;5045735;28;20033;-52
2021/12/21 09:36:40;;;;;;;4.50;1.75;;;;;;;25.86;35.29;95341.22;5045873;28;20087;-52
2021/12/21 09:39:05;;;;;;;3.10;1.50;;;;;;;25.89;34.13;95356.59;5045149;28;20488;-52
2021/12/21 09:41:31;;;;;;;3.45;1.40;;;;;;;25.80;34.43;95346.03;5045549;28;20033;-52
2021/12/21 09:43:56;;;;;;;3.72;2.03;;;;;;;25.65;33.70;95346.94;5040680;28;20030;-53
2021/12/21 09:46:22;;;;;;;60.10;36.67;;;;;;;25.54;33.82;95358.00;5052134;28;20043;-52
2021/12/21 09:48:47;;;;;;;103.32;64.63;;;;;;;25.46;33.19;95362.59;5045325;28;20037;-55
2021/12/21 09:51:13;;;;;;;224.68;134.13;;;;;;;25.38;33.50;95351.47;5028788;28;20045;-53
2021/12/21 09:53:38;;;;;;;3.00;1.48;;;;;;;25.31;33.60;95354.06;5045128;28;20031;-52
2021/12/21 09:56:04;;;;;;;3.22;1.20;;;;;;;25.21;33.60;95347.44;5045809;28;20457;-52
2021/12/21 09:58:30;;;;;;;3.42;1.38;;;;;;;25.12;33.45;95355.97;5032272;28;20040;-53
2021/12/21 10:00:56;;;;;;;2.58;1.17;;;;;;;25.05;33.27;95362.03;5041204;28;20052;-52
2021/12/21 10:03:22;;;;;;;2.33;1.13;;;;;;;24.99;33.87;95361.34;5044838;28;20108;-54
2021/12/21 10:05:47;;;;;;;2.35;1.10;;;;;;;24.91;33.81;95352.19;5044804;28;20039;-53
2021/12/21 10:08:18;;;;;;;2.78;1.30;;;;;;;24.94;33.38;95348.41;5044519;28;20544;-53
2021/12/21 10:10:51;;;;;;;3.05;1.00;;;;;;;24.88;33.62;95345.00;5044983;28;20127;-52
2021/12/21 10:13:20;;;;;;;2.75;1.38;;;;;;;24.86;33.35;95338.59;5044822;28;20060;-52
2021/12/21 10:15:48;;;;;;;3.30;1.30;;;;;;;24.82;33.28;95338.84;5044933;28;20033;-54
2021/12/21 10:18:14;;;;;;;2.17;1.10;;;;;;;24.78;33.56;95348.56;5043930;28;20048;-52
2021/12/21 10:20:46;;;;;;;3.05;1.50;;;;;;;24.71;33.27;95342.94;5044391;28;20036;-51
2021/12/21 10:23:11;;;;;;;4.13;1.40;;;;;;;24.64;33.37;95338.03;5042280;28;20091;-53
2021/12/21 10:25:48;;;;;;;2.85;1.20;;;;;;;24.61;33.60;95347.25;5042282;28;20049;-54
2021/12/21 10:28:44;;;;;;;3.20;1.55;;;;;;;24.57;33.22;95354.97;5041989;28;20040;-54
2021/12/21 10:31:14;;;;;;;9.48;5.93;;;;;;;24.53;33.46;95346.34;5039825;28;20048;-53
2021/12/21 10:33:43;;;;;;;12.57;6.53;;;;;;;24.52;33.66;95347.56;5041783;28;20453;-55
2021/12/21 10:36:09;;;;;;;77.43;49.53;;;;;;;24.43;33.37;95339.69;5041802;28;20458;-52
2021/12/21 10:38:36;;;;;;;190.10;118.50;;;;;;;24.40;33.59;95351.63;5041351;28;20041;-53
2021/12/21 10:41:11;;;;;;;97.35;49.53;;;;;;;24.42;33.46;95360.03;5041555;28;20083;-52
2021/12/21 10:43:36;;;;;;;154.63;87.22;;;;;;;24.44;33.62;95363.03;5041456;28;20044;-56
2021/12/21 10:46:02;;;;;;;3.05;1.10;;;;;;;24.43;33.38;95367.00;5041761;28;20025;-53
2021/12/21 10:48:29;;;;;;;4.78;1.50;;;;;;;24.44;33.81;95363.03;5042430;28;20032;-54
2021/12/21 10:50:55;;;;;;;4.95;1.25;;;;;;;24.42;33.33;95354.59;5028144;28;20029;-53
2021/12/21 10:53:23;;;;;;;3.58;1.30;;;;;;;24.36;33.33;95351.16;5045207;28;20039;-53
2021/12/21 10:55:58;;;;;;;3.08;1.35;;;;;;;24.35;33.74;95352.44;5049935;28;20025;-54
2021/12/21 10:58:26;;;;;;;5.35;1.27;;;;;;;24.23;33.48;95348.25;5035398;28;20046;-52
2021/12/21 11:00:53;;;;;;;3.17;1.33;;;;;;;24.22;33.33;95352.22;5038877;28;20041;-51
2021/12/21 11:03:44;;;;;;;2.72;1.30;;;;;;;24.27;33.37;95343.25;5041384;28;20229;-52
2021/12/21 11:06:11;;;;;;;4.13;1.95;;;;;;;24.26;33.73;95339.06;5040717;28;20112;-52
2021/12/21 11:08:39;;;;;;;14.65;6.25;;;;;;;24.24;34.04;95344.25;5040925;28;20147;-56
2021/12/21 11:11:10;;;;;;;17.67;1.98;;;;;;;24.20;33.72;95340.31;5040460;28;20029;-52
2021/12/21 11:13:35;;;;;;;4.78;1.38;;;;;;;24.17;33.74;95339.38;5040349;28;20028;-55
2021/12/21 11:16:04;;;;;;;6.60;1.42;;;;;;;24.12;34.28;95337.41;5041973;28;20487;-53
2021/12/21 11:18:29;;;;;;;5.55;1.20;;;;;;;24.11;34.17;95341.41;5042342;28;20037;-55
2021/12/21 11:20:56;;;;;;;5.43;1.23;;;;;;;24.13;34.16;95338.88;5046180;28;20245;-53
2021/12/21 11:23:22;;;;;;;5.32;1.60;;;;;;;24.15;34.55;95339.13;5044050;28;20068;-53
2021/12/21 11:25:49;;;;;;;4.18;1.27;;;;;;;24.15;34.29;95336.38;5045153;28;20061;-53
2021/12/21 11:28:17;;;;;;;5.90;1.58;;;;;;;24.16;34.80;95340.59;5040889;28;20029;-55
2021/12/21 11:30:42;;;;;;;5.03;1.70;;;;;;;24.21;34.01;95328.91;5040707;28;20025;-51
2021/12/21 11:33:10;;;;;;;4.53;1.40;;;;;;;24.27;34.48;95332.34;5042031;28;20028;-53
2021/12/21 11:38:03;;;;;;;4.10;1.52;;;;;;;24.47;34.04;95329.97;5043842;28;20132;-54
2021/12/21 11:40:31;;;;;;;4.65;1.55;;;;;;;24.58;33.56;95329.16;5033544;28;20038;-53
2021/12/21 11:43:33;;;;;;;5.45;1.30;;;;;;;24.74;33.54;95336.44;5040399;28;20543;-53
2021/12/21 11:46:07;;;;;;;3.92;1.60;;;;;;;24.87;33.15;95318.94;5045935;28;20072;-53
2021/12/21 11:48:43;;;;;;;4.65;1.52;;;;;;;24.98;33.27;95335.22;5044152;28;20033;-53
2021/12/21 11:51:10;;;;;;;5.30;1.58;;;;;;;25.07;33.30;95332.19;5043337;28;20028;-53
2021/12/21 11:53:36;;;;;;;4.03;1.27;;;;;;;24.91;22.98;95319.38;5044266;28;20013;-54
2021/12/21 11:56:01;;;;;;;4.10;1.38;;;;;;;24.65;28.50;95328.59;5045117;28;20568;-58
2021/12/21 11:58:28;;;;;;;2.38;1.13;;;;;;;24.90;31.16;95328.84;5044966;28;20032;-52
2021/12/21 12:00:53;;;;;;;5.95;1.58;;;;;;;25.13;31.71;95341.06;5054340;28;20506;-52
2021/12/21 12:03:21;;;;;;;3.22;1.20;;;;;;;25.28;31.93;95325.00;5045978;28;21044;-52
2021/12/21 12:05:57;;;;;;;2.53;1.30;;;;;;;25.43;31.64;95336.28;5061565;28;20678;-53
2021/12/21 12:08:24;;;;;;;5.03;1.63;;;;;;;25.53;31.72;95337.38;5062751;28;20032;-62
2021/12/21 12:10:58;;;;;;;3.58;1.42;;;;;;;25.68;31.50;95341.22;5036577;28;20030;-53
2021/12/21 12:13:39;;;;;;;2.67;1.63;;;;;;;25.84;31.46;95341.00;5043180;28;20029;-53
2021/12/21 12:16:07;;;;;;;3.03;1.40;;;;;;;25.92;31.44;95343.88;5044699;28;20029;-53
2021/12/21 12:18:33;;;;;;;4.53;1.80;;;;;;;26.02;31.37;95348.47;5032042;28;20050;-54
2021/12/21 12:21:19;;;;;;;3.80;1.73;;;;;;;26.19;31.12;95345.47;5055032;28;20128;-52
2021/12/21 12:23:50;;;;;;;3.20;1.38;;;;;;;26.27;30.91;95358.06;5044297;28;20074;-53
2021/12/21 12:26:29;;;;;;;4.63;1.67;;;;;;;26.39;30.97;95353.94;5045025;28;20056;-55
2021/12/21 12:29:14;;;;;;;3.78;1.92;;;;;;;26.45;30.71;95357.31;5044378;28;20021;-53
2021/12/21 12:31:40;;;;;;;3.03;1.40;;;;;;;26.54;30.80;95365.16;5042952;28;20404;-53
2021/12/21 12:34:06;;;;;;;4.95;1.67;;;;;;;26.58;30.64;95360.13;5044096;28;20068;-52
2021/12/21 12:36:51;;;;;;;3.45;1.50;;;;;;;26.62;30.68;95366.00;5042790;28;20013;-54